ICE2A BIKF-BIAR
Flight info
| Callsign | ICE2A |
|---|---|
| Flight time | 0h 38m |
| Altitude | 17000 |
| Route | LUTER2B LUTER DCT ASKUR |
| Aircraft | A21N/M-SDE2E3FGHIRWXY/LB1 |
Departure
| Time | 2026-04-25 22:32 |
|---|---|
| Airport | Keflavik International Airport (BIKF) |
Arrival
| Time | 2026-04-25 23:11 |
|---|---|
| Airport | Akureyri International Airport (BIAR) |
| Time | Latitude | Longitude | Altitude | Speed | Heading |
|---|---|---|---|---|---|
| 2026-04-25 22:16 | 63.99422 | -22.62486 | 143 ft | 0 kts | 89° |
| 2026-04-25 22:22 | 63.99422 | -22.62501 | 143 ft | 4 kts | 90° |
| 2026-04-25 22:23 | 63.99423 | -22.62562 | 145 ft | 4 kts | 98° |
| 2026-04-25 22:23 | 63.99430 | -22.62620 | 145 ft | 4 kts | 118° |
| 2026-04-25 22:23 | 63.99444 | -22.62656 | 145 ft | 4 kts | 185° |
| 2026-04-25 22:23 | 63.99450 | -22.62655 | 145 ft | 1 kts | 204° |
| 2026-04-25 22:25 | 63.99449 | -22.62656 | 145 ft | 2 kts | 204° |
| 2026-04-25 22:26 | 63.99405 | -22.62699 | 145 ft | 8 kts | 200° |
| 2026-04-25 22:26 | 63.99353 | -22.62742 | 145 ft | 8 kts | 186° |
| 2026-04-25 22:26 | 63.99292 | -22.62745 | 145 ft | 9 kts | 176° |
| 2026-04-25 22:26 | 63.99238 | -22.62689 | 145 ft | 9 kts | 151° |
| 2026-04-25 22:27 | 63.99184 | -22.62680 | 145 ft | 8 kts | 187° |
| 2026-04-25 22:27 | 63.99130 | -22.62708 | 145 ft | 9 kts | 195° |
| 2026-04-25 22:27 | 63.99067 | -22.62751 | 144 ft | 10 kts | 197° |
| 2026-04-25 22:27 | 63.98994 | -22.62801 | 142 ft | 12 kts | 197° |
| 2026-04-25 22:28 | 63.98909 | -22.62861 | 141 ft | 14 kts | 198° |
| 2026-04-25 22:28 | 63.98858 | -22.62936 | 140 ft | 6 kts | 244° |
| 2026-04-25 22:28 | 63.98854 | -22.63054 | 139 ft | 9 kts | 270° |
| 2026-04-25 22:28 | 63.98855 | -22.63250 | 137 ft | 16 kts | 270° |
| 2026-04-25 22:29 | 63.98852 | -22.63559 | 126 ft | 23 kts | 269° |
| 2026-04-25 22:29 | 63.98854 | -22.63958 | 129 ft | 27 kts | 270° |
| 2026-04-25 22:29 | 63.98854 | -22.64388 | 126 ft | 29 kts | 270° |
| 2026-04-25 22:30 | 63.98852 | -22.65366 | 116 ft | 18 kts | 261° |
| 2026-04-25 22:30 | 63.98830 | -22.65450 | 119 ft | 4 kts | 203° |
| 2026-04-25 22:30 | 63.98752 | -22.65464 | 121 ft | 18 kts | 179° |
| 2026-04-25 22:30 | 63.98658 | -22.65454 | 118 ft | 14 kts | 184° |
| 2026-04-25 22:31 | 63.98519 | -22.65437 | 118 ft | 7 kts | 144° |
| 2026-04-25 22:31 | 63.98504 | -22.65359 | 121 ft | 5 kts | 91° |
| 2026-04-25 22:31 | 63.98504 | -22.65179 | 119 ft | 31 kts | 90° |
| 2026-04-25 22:31 | 63.98499 | -22.64206 | 134 ft | 92 kts | 91° |
| 2026-04-25 22:32 | 63.98503 | -22.62262 | 192 ft | 144 kts | 90° |
| 2026-04-25 22:32 | 63.98534 | -22.60038 | 873 ft | 139 kts | 94° |
| 2026-04-25 22:32 | 63.98605 | -22.57732 | 1391 ft | 154 kts | 92° |
| 2026-04-25 22:32 | 63.98691 | -22.55171 | 1858 ft | 169 kts | 92° |
| 2026-04-25 22:33 | 63.98777 | -22.52412 | 2344 ft | 179 kts | 92° |
| 2026-04-25 22:33 | 63.98813 | -22.50514 | 2721 ft | 185 kts | 96° |
| 2026-04-25 22:33 | 63.98777 | -22.47383 | 3314 ft | 203 kts | 100° |
| 2026-04-25 22:33 | 63.98668 | -22.44055 | 3984 ft | 218 kts | 97° |
| 2026-04-25 22:34 | 63.98754 | -22.40526 | 4873 ft | 228 kts | 87° |
| 2026-04-25 22:34 | 63.98974 | -22.36894 | 5838 ft | 235 kts | 85° |
| 2026-04-25 22:34 | 63.99250 | -22.33144 | 6745 ft | 244 kts | 81° |
| 2026-04-25 22:34 | 63.99556 | -22.29301 | 7643 ft | 250 kts | 78° |
| 2026-04-25 22:35 | 63.99840 | -22.25338 | 8579 ft | 255 kts | 86° |
| 2026-04-25 22:35 | 64.00091 | -22.21287 | 9571 ft | 259 kts | 86° |
| 2026-04-25 22:35 | 64.00350 | -22.17192 | 10522 ft | 265 kts | 85° |
| 2026-04-25 22:35 | 64.00632 | -22.12869 | 10998 ft | 287 kts | 84° |
| 2026-04-25 22:36 | 64.00946 | -22.08183 | 11343 ft | 310 kts | 84° |
| 2026-04-25 22:36 | 64.01287 | -22.03162 | 11766 ft | 329 kts | 83° |
| 2026-04-25 22:36 | 64.01647 | -21.97911 | 12366 ft | 341 kts | 83° |
| 2026-04-25 22:36 | 64.02018 | -21.92502 | 13161 ft | 347 kts | 83° |
| 2026-04-25 22:37 | 64.02392 | -21.87038 | 14033 ft | 351 kts | 83° |
| 2026-04-25 22:37 | 64.02769 | -21.81474 | 14677 ft | 358 kts | 83° |
| 2026-04-25 22:37 | 64.03154 | -21.75759 | 15477 ft | 361 kts | 81° |
| 2026-04-25 22:37 | 64.03561 | -21.69990 | 15935 ft | 374 kts | 81° |
| 2026-04-25 22:38 | 64.03984 | -21.64034 | 16335 ft | 388 kts | 81° |
| 2026-04-25 22:38 | 64.04409 | -21.57864 | 16783 ft | 398 kts | 81° |
| 2026-04-25 22:38 | 64.04836 | -21.51502 | 17068 ft | 413 kts | 81° |
| 2026-04-25 22:38 | 64.05269 | -21.44889 | 17112 ft | 425 kts | 82° |
| 2026-04-25 22:39 | 64.05689 | -21.38384 | 17106 ft | 413 kts | 82° |
| 2026-04-25 22:39 | 64.06099 | -21.31988 | 17108 ft | 402 kts | 82° |
| 2026-04-25 22:39 | 64.06498 | -21.25752 | 17107 ft | 392 kts | 82° |
| 2026-04-25 22:39 | 64.06890 | -21.19604 | 17111 ft | 396 kts | 81° |
| 2026-04-25 22:40 | 64.07322 | -21.13225 | 17118 ft | 403 kts | 79° |
| 2026-04-25 22:40 | 64.07773 | -21.06894 | 17118 ft | 405 kts | 79° |
| 2026-04-25 22:40 | 64.08210 | -21.00517 | 17119 ft | 404 kts | 79° |
| 2026-04-25 22:40 | 64.08625 | -20.94166 | 17120 ft | 405 kts | 81° |
| 2026-04-25 22:41 | 64.09027 | -20.87787 | 17125 ft | 405 kts | 80° |
| 2026-04-25 22:41 | 64.09419 | -20.81404 | 17124 ft | 404 kts | 80° |
| 2026-04-25 22:41 | 64.09804 | -20.75045 | 17124 ft | 404 kts | 80° |
| 2026-04-25 22:41 | 64.10179 | -20.68774 | 17124 ft | 404 kts | 80° |
| 2026-04-25 22:42 | 64.10562 | -20.62309 | 17126 ft | 404 kts | 80° |
| 2026-04-25 22:42 | 64.10931 | -20.56017 | 17129 ft | 404 kts | 81° |
| 2026-04-25 22:42 | 64.11311 | -20.49562 | 17132 ft | 404 kts | 80° |
| 2026-04-25 22:42 | 64.11861 | -20.43299 | 17135 ft | 402 kts | 71° |
| 2026-04-25 22:43 | 64.13011 | -20.37477 | 17131 ft | 400 kts | 54° |
| 2026-04-25 22:43 | 64.14798 | -20.32692 | 17129 ft | 398 kts | 38° |
| 2026-04-25 22:43 | 64.17002 | -20.28779 | 17140 ft | 400 kts | 31° |
| 2026-04-25 22:43 | 64.19340 | -20.25309 | 17140 ft | 402 kts | 28° |
| 2026-04-25 22:44 | 64.21749 | -20.21983 | 17151 ft | 403 kts | 27° |
| 2026-04-25 22:44 | 64.24157 | -20.18683 | 17141 ft | 404 kts | 27° |
| 2026-04-25 22:44 | 64.26563 | -20.15317 | 17143 ft | 405 kts | 28° |
| 2026-04-25 22:44 | 64.28959 | -20.11876 | 17144 ft | 405 kts | 28° |
| 2026-04-25 22:45 | 64.31335 | -20.08386 | 17154 ft | 405 kts | 29° |
| 2026-04-25 22:45 | 64.33701 | -20.04855 | 17151 ft | 405 kts | 29° |
| 2026-04-25 22:45 | 64.36062 | -20.01298 | 17151 ft | 405 kts | 29° |
| 2026-04-25 22:45 | 64.38421 | -19.97726 | 17151 ft | 405 kts | 29° |
| 2026-04-25 22:46 | 64.40779 | -19.94149 | 17147 ft | 405 kts | 29° |
| 2026-04-25 22:46 | 64.43136 | -19.90567 | 17149 ft | 405 kts | 29° |
| 2026-04-25 22:46 | 64.45491 | -19.86986 | 17159 ft | 405 kts | 29° |
| 2026-04-25 22:46 | 64.47847 | -19.83398 | 17159 ft | 405 kts | 30° |
| 2026-04-25 22:47 | 64.50202 | -19.79807 | 17159 ft | 405 kts | 30° |
| 2026-04-25 22:47 | 64.52560 | -19.76203 | 17159 ft | 405 kts | 30° |
| 2026-04-25 22:47 | 64.54884 | -19.72645 | 17157 ft | 405 kts | 30° |
| 2026-04-25 22:47 | 64.57267 | -19.68990 | 17157 ft | 405 kts | 30° |
| 2026-04-25 22:48 | 64.59653 | -19.65320 | 17167 ft | 405 kts | 29° |
| 2026-04-25 22:48 | 64.62006 | -19.61695 | 17168 ft | 405 kts | 29° |
| 2026-04-25 22:48 | 64.64357 | -19.58066 | 17174 ft | 406 kts | 29° |
| 2026-04-25 22:48 | 64.66715 | -19.54419 | 17169 ft | 407 kts | 29° |
| 2026-04-25 22:49 | 64.69046 | -19.50806 | 17167 ft | 408 kts | 29° |
| 2026-04-25 22:49 | 64.71406 | -19.47138 | 17168 ft | 408 kts | 29° |
| 2026-04-25 22:49 | 64.73768 | -19.43458 | 17159 ft | 408 kts | 29° |
| 2026-04-25 22:49 | 64.76129 | -19.39773 | 17158 ft | 408 kts | 29° |
| 2026-04-25 22:50 | 64.78519 | -19.36033 | 17160 ft | 408 kts | 29° |
| 2026-04-25 22:50 | 64.80873 | -19.32344 | 17159 ft | 407 kts | 29° |
| 2026-04-25 22:50 | 64.83234 | -19.28634 | 17159 ft | 407 kts | 29° |
| 2026-04-25 22:50 | 64.85594 | -19.24920 | 17159 ft | 407 kts | 29° |
| 2026-04-25 22:51 | 64.87949 | -19.21205 | 17162 ft | 407 kts | 29° |
| 2026-04-25 22:51 | 64.90304 | -19.17481 | 17151 ft | 408 kts | 29° |
| 2026-04-25 22:51 | 64.92657 | -19.13754 | 17152 ft | 408 kts | 29° |
| 2026-04-25 22:51 | 64.95005 | -19.10023 | 17151 ft | 407 kts | 30° |
| 2026-04-25 22:52 | 64.97352 | -19.06286 | 17151 ft | 406 kts | 30° |
| 2026-04-25 22:52 | 64.99706 | -19.02539 | 16819 ft | 400 kts | 29° |
| 2026-04-25 22:52 | 65.02013 | -18.98866 | 16064 ft | 398 kts | 30° |
| 2026-04-25 22:52 | 65.03534 | -18.96432 | 15550 ft | 397 kts | 30° |
| 2026-04-25 22:53 | 65.06576 | -18.91534 | 14658 ft | 392 kts | 30° |
| 2026-04-25 22:53 | 65.08786 | -18.87968 | 14001 ft | 389 kts | 30° |
| 2026-04-25 22:53 | 65.11051 | -18.84304 | 13275 ft | 385 kts | 30° |
| 2026-04-25 22:53 | 65.13256 | -18.80729 | 12605 ft | 382 kts | 30° |
| 2026-04-25 22:54 | 65.15440 | -18.77177 | 12220 ft | 379 kts | 30° |
| 2026-04-25 22:54 | 65.17694 | -18.73967 | 12130 ft | 374 kts | 21° |
| 2026-04-25 22:54 | 65.20059 | -18.71883 | 12148 ft | 361 kts | 8° |
| 2026-04-25 22:54 | 65.22522 | -18.71129 | 12127 ft | 355 kts | 355° |
| 2026-04-25 22:55 | 65.24993 | -18.71250 | 12145 ft | 355 kts | 351° |
| 2026-04-25 22:55 | 65.27471 | -18.71631 | 12138 ft | 356 kts | 350° |
| 2026-04-25 22:55 | 65.29940 | -18.72096 | 12140 ft | 357 kts | 349° |
| 2026-04-25 22:55 | 65.32414 | -18.72594 | 12133 ft | 357 kts | 349° |
| 2026-04-25 22:56 | 65.34889 | -18.73108 | 12130 ft | 357 kts | 349° |
| 2026-04-25 22:56 | 65.37360 | -18.73630 | 12131 ft | 357 kts | 349° |
| 2026-04-25 22:56 | 65.39836 | -18.74104 | 12130 ft | 357 kts | 353° |
| 2026-04-25 22:56 | 65.42317 | -18.74428 | 12141 ft | 357 kts | 353° |
| 2026-04-25 22:57 | 65.44795 | -18.74792 | 12135 ft | 357 kts | 353° |
| 2026-04-25 22:57 | 65.47273 | -18.75223 | 12125 ft | 357 kts | 352° |
| 2026-04-25 22:57 | 65.49743 | -18.75702 | 12107 ft | 356 kts | 352° |
| 2026-04-25 22:57 | 65.51409 | -18.76038 | 12122 ft | 355 kts | 352° |
| 2026-04-25 22:58 | 65.53905 | -18.76559 | 12113 ft | 355 kts | 352° |
| 2026-04-25 22:58 | 65.56345 | -18.77079 | 11770 ft | 349 kts | 351° |
| 2026-04-25 22:58 | 65.58729 | -18.77599 | 11447 ft | 338 kts | 352° |
| 2026-04-25 22:58 | 65.61037 | -18.78096 | 11133 ft | 328 kts | 351° |
| 2026-04-25 22:59 | 65.63277 | -18.78580 | 10831 ft | 318 kts | 351° |
| 2026-04-25 22:59 | 65.65458 | -18.79049 | 10524 ft | 313 kts | 351° |
| 2026-04-25 22:59 | 65.67620 | -18.79523 | 10237 ft | 311 kts | 351° |
| 2026-04-25 22:59 | 65.69772 | -18.79999 | 10118 ft | 311 kts | 351° |
| 2026-04-25 23:00 | 65.71924 | -18.80477 | 10102 ft | 311 kts | 351° |
| 2026-04-25 23:00 | 65.74078 | -18.80976 | 10112 ft | 310 kts | 350° |
| 2026-04-25 23:00 | 65.76233 | -18.81476 | 10106 ft | 311 kts | 351° |
| 2026-04-25 23:00 | 65.78402 | -18.81372 | 10078 ft | 316 kts | 6° |
| 2026-04-25 23:01 | 65.80473 | -18.79473 | 9643 ft | 323 kts | 30° |
| 2026-04-25 23:01 | 65.82221 | -18.76135 | 9169 ft | 323 kts | 38° |
| 2026-04-25 23:01 | 65.83888 | -18.72470 | 8801 ft | 323 kts | 40° |
| 2026-04-25 23:01 | 65.85517 | -18.68819 | 8440 ft | 313 kts | 40° |
| 2026-04-25 23:02 | 65.87104 | -18.65279 | 8093 ft | 305 kts | 39° |
| 2026-04-25 23:02 | 65.88658 | -18.61845 | 7758 ft | 298 kts | 39° |
| 2026-04-25 23:02 | 65.90215 | -18.58423 | 7416 ft | 295 kts | 39° |
| 2026-04-25 23:02 | 65.91739 | -18.55083 | 7144 ft | 293 kts | 39° |
| 2026-04-25 23:03 | 65.93200 | -18.51583 | 7081 ft | 295 kts | 47° |
| 2026-04-25 23:03 | 65.94383 | -18.47498 | 7092 ft | 297 kts | 60° |
| 2026-04-25 23:03 | 65.95175 | -18.42762 | 6889 ft | 296 kts | 75° |
| 2026-04-25 23:03 | 65.95445 | -18.37804 | 6573 ft | 289 kts | 91° |
| 2026-04-25 23:04 | 65.95220 | -18.32971 | 6219 ft | 282 kts | 107° |
| 2026-04-25 23:04 | 65.94553 | -18.28558 | 6092 ft | 273 kts | 121° |
| 2026-04-25 23:04 | 65.93517 | -18.24694 | 6090 ft | 270 kts | 135° |
| 2026-04-25 23:04 | 65.92188 | -18.21530 | 5848 ft | 264 kts | 148° |
| 2026-04-25 23:05 | 65.90675 | -18.19292 | 5652 ft | 242 kts | 160° |
| 2026-04-25 23:05 | 65.89143 | -18.17923 | 5188 ft | 232 kts | 168° |
| 2026-04-25 23:05 | 65.87574 | -18.16779 | 4815 ft | 227 kts | 167° |
| 2026-04-25 23:05 | 65.86123 | -18.15424 | 4368 ft | 218 kts | 158° |
| 2026-04-25 23:06 | 65.84817 | -18.13751 | 4014 ft | 206 kts | 158° |
| 2026-04-25 23:06 | 65.83481 | -18.12634 | 3751 ft | 200 kts | 171° |
| 2026-04-25 23:06 | 65.82134 | -18.12084 | 3452 ft | 193 kts | 174° |
| 2026-04-25 23:06 | 65.80835 | -18.11670 | 3125 ft | 184 kts | 174° |
| 2026-04-25 23:07 | 65.79633 | -18.11300 | 2980 ft | 164 kts | 174° |
| 2026-04-25 23:07 | 65.78546 | -18.10896 | 2725 ft | 153 kts | 171° |
| 2026-04-25 23:07 | 65.77536 | -18.10331 | 2453 ft | 143 kts | 167° |
| 2026-04-25 23:07 | 65.76610 | -18.09680 | 2246 ft | 132 kts | 165° |
| 2026-04-25 23:08 | 65.75743 | -18.09068 | 1988 ft | 132 kts | 166° |
| 2026-04-25 23:08 | 65.74802 | -18.08736 | 1715 ft | 140 kts | 175° |
| 2026-04-25 23:08 | 65.73822 | -18.08689 | 1445 ft | 138 kts | 177° |
| 2026-04-25 23:08 | 65.72859 | -18.08613 | 1282 ft | 139 kts | 173° |
| 2026-04-25 23:09 | 65.71905 | -18.08438 | 1085 ft | 139 kts | 174° |
| 2026-04-25 23:09 | 65.70939 | -18.08152 | 943 ft | 136 kts | 174° |
| 2026-04-25 23:09 | 65.70003 | -18.07979 | 793 ft | 134 kts | 176° |
| 2026-04-25 23:09 | 65.69095 | -18.07889 | 572 ft | 131 kts | 176° |
| 2026-04-25 23:10 | 65.68186 | -18.07679 | 344 ft | 128 kts | 178° |
| 2026-04-25 23:10 | 65.67284 | -18.07503 | 199 ft | 132 kts | 176° |
| 2026-04-25 23:10 | 65.66367 | -18.07342 | 34 ft | 130 kts | 176° |
| 2026-04-25 23:10 | 65.65613 | -18.07204 | 21 ft | 64 kts | 176° |
| 2026-04-25 23:11 | 65.65483 | -18.07265 | 20 ft | 1 kts | 253° |